Time;durP1;ratioP1;P1;durP2;ratioP2;P2;SDS_P1;SDS_P2;PMS_P1;PMS_P2;Temp;Humidity;BMP_temperature;BMP_pressure;BME280_temperature;BME280_humidity;BME280_pressure;Samples;Min_cycle;Max_cycle;Signal;HPM_P1;HPM_P2
2024/02/03 00:00:56;;;;;;;13.23;12.93;;;8.50;99.90;;;;;;5052673;28;20555;-73
2024/02/03 00:03:23;;;;;;;12.80;12.50;;;8.50;99.90;;;;;;5052590;28;20530;-73
2024/02/03 00:05:50;;;;;;;12.80;12.50;;;8.60;99.90;;;;;;5051394;28;20556;-71
2024/02/03 00:08:16;;;;;;;13.70;13.30;;;8.50;99.90;;;;;;5051743;28;20470;-71
2024/02/03 00:10:44;;;;;;;13.57;13.17;;;8.60;99.90;;;;;;5047726;28;20868;-73
2024/02/03 00:13:11;;;;;;;13.67;13.27;;;8.50;99.90;;;;;;5052181;28;20662;-72
2024/02/03 00:15:43;;;;;;;14.07;13.67;;;8.60;99.90;;;;;;5051106;28;20488;-73
2024/02/03 00:18:12;;;;;;;13.60;13.20;;;8.60;99.90;;;;;;5048799;28;20463;-73
2024/02/03 00:20:40;;;;;;;13.30;13.00;;;8.60;99.90;;;;;;5049661;28;20460;-72
2024/02/03 00:23:07;;;;;;;13.23;12.93;;;8.60;99.90;;;;;;5055868;28;20463;-73
2024/02/03 00:25:34;;;;;;;13.40;13.00;;;8.60;99.90;;;;;;5047133;28;20468;-73
2024/02/03 00:28:02;;;;;;;12.97;12.67;;;8.60;99.90;;;;;;5049995;28;20510;-73
2024/02/03 00:30:30;;;;;;;12.50;12.20;;;8.60;99.90;;;;;;5054346;28;20503;-72
2024/02/03 00:32:58;;;;;;;13.43;13.03;;;8.60;99.90;;;;;;5052680;28;20465;-75
2024/02/03 00:35:25;;;;;;;14.43;14.03;;;8.60;99.90;;;;;;5051034;28;20504;-73
2024/02/03 00:37:53;;;;;;;14.33;13.93;;;8.60;99.90;;;;;;5050379;28;20529;-72
2024/02/03 00:40:22;;;;;;;14.73;14.33;;;8.60;99.90;;;;;;5050597;28;20453;-72
2024/02/03 00:42:50;;;;;;;13.67;13.27;;;8.60;99.90;;;;;;5047337;28;20959;-71
2024/02/03 00:45:18;;;;;;;14.07;13.67;;;8.70;99.90;;;;;;5048250;28;20583;-73
2024/02/03 00:47:45;;;;;;;14.23;13.83;;;8.70;99.90;;;;;;5056191;28;20455;-73
2024/02/03 00:50:15;;;;;;;14.53;14.13;;;8.70;99.90;;;;;;5047617;28;20468;-72
2024/02/03 00:52:42;;;;;;;14.10;13.70;;;8.60;99.90;;;;;;5050194;28;20506;-71
2024/02/03 00:55:11;;;;;;;14.10;13.70;;;8.60;99.90;;;;;;5046349;28;20581;-73
2024/02/03 00:57:38;;;;;;;14.70;14.30;;;8.60;99.90;;;;;;5052335;28;20473;-72
2024/02/03 01:00:09;;;;;;;14.10;13.70;;;8.70;99.90;;;;;;5051470;28;20456;-73
2024/02/03 01:02:36;;;;;;;14.63;14.23;;;8.60;99.90;;;;;;5048819;28;20455;-73
2024/02/03 01:05:05;;;;;;;14.97;14.57;;;8.70;99.90;;;;;;5050757;28;20806;-73
2024/02/03 01:07:33;;;;;;;14.40;14.00;;;8.70;99.90;;;;;;5060410;28;20464;-73
2024/02/03 01:10:00;;;;;;;14.03;13.63;;;8.70;99.90;;;;;;5053755;28;20478;-73
2024/02/03 01:12:27;;;;;;;15.30;14.80;;;8.70;99.90;;;;;;5055954;28;20462;-73
2024/02/03 01:14:56;;;;;;;15.70;15.20;;;8.70;99.90;;;;;;5053655;28;20494;-73
2024/02/03 01:17:26;;;;;;;14.97;14.57;;;8.70;99.90;;;;;;5044237;28;20472;-76
2024/02/03 01:19:53;;;;;;;14.13;13.73;;;8.70;99.90;;;;;;5051667;28;20493;-73
2024/02/03 01:22:23;;;;;;;13.50;13.13;;;8.70;99.90;;;;;;5050338;28;20547;-74
2024/02/03 01:24:51;;;;;;;13.70;13.30;;;8.70;99.90;;;;;;5051310;28;20466;-72
2024/02/03 01:27:18;;;;;;;13.77;13.37;;;8.70;99.90;;;;;;5045435;28;20491;-72
2024/02/03 01:29:45;;;;;;;13.47;13.10;;;8.70;99.90;;;;;;5048071;28;20467;-74
2024/02/03 01:32:12;;;;;;;14.00;13.60;;;8.70;99.90;;;;;;5051122;28;20444;-73
2024/02/03 01:34:39;;;;;;;14.63;14.23;;;8.70;99.90;;;;;;5044406;28;20466;-73
2024/02/03 01:37:06;;;;;;;14.03;13.63;;;8.70;99.90;;;;;;5045888;28;20462;-75
2024/02/03 01:39:34;;;;;;;13.17;12.87;;;8.70;99.90;;;;;;5047521;28;20976;-74
2024/02/03 01:42:03;;;;;;;14.20;13.80;;;8.60;99.90;;;;;;5047648;28;20841;-72
2024/02/03 01:44:32;;;;;;;14.30;13.90;;;8.70;99.90;;;;;;5048381;28;20465;-73
2024/02/03 01:47:00;;;;;;;13.47;13.07;;;8.70;99.90;;;;;;5053827;28;20464;-74
2024/02/03 01:49:28;;;;;;;14.40;14.00;;;8.70;99.90;;;;;;5046068;28;20834;-73
2024/02/03 01:51:56;;;;;;;14.30;13.90;;;8.70;99.90;;;;;;5047100;28;20476;-73
2024/02/03 01:54:25;;;;;;;13.63;13.23;;;8.60;99.90;;;;;;5051462;28;21165;-73
2024/02/03 01:56:56;;;;;;;13.87;13.47;;;8.70;99.90;;;;;;5046139;28;20503;-73
2024/02/03 01:59:27;;;;;;;14.20;13.80;;;8.70;99.90;;;;;;5054893;28;21024;-72
2024/02/03 02:01:56;;;;;;;14.40;14.00;;;8.70;99.90;;;;;;5052860;28;20456;-73
2024/02/03 02:04:23;;;;;;;14.47;14.07;;;8.70;99.90;;;;;;5042968;28;20972;-73
2024/02/03 02:06:51;;;;;;;14.33;13.93;;;8.70;99.90;;;;;;5046513;28;20465;-73
2024/02/03 02:09:22;;;;;;;12.70;12.40;;;8.70;99.90;;;;;;5058091;28;21714;-73
2024/02/03 02:11:49;;;;;;;13.10;12.80;;;8.60;99.90;;;;;;5051667;28;20503;-72
2024/02/03 02:14:16;;;;;;;13.93;13.53;;;8.70;99.90;;;;;;5050407;28;20842;-75
2024/02/03 02:16:44;;;;;;;13.83;13.43;;;8.70;99.90;;;;;;5046841;28;20504;-73
2024/02/03 02:19:11;;;;;;;14.60;14.20;;;8.80;99.90;;;;;;5045054;28;20985;-72
2024/02/03 02:21:40;;;;;;;14.73;14.33;;;8.80;99.90;;;;;;5050231;28;20963;-73
2024/02/03 02:24:07;;;;;;;15.00;14.60;;;8.80;99.90;;;;;;5044329;28;20475;-74
2024/02/03 02:26:34;;;;;;;15.00;14.60;;;8.80;99.90;;;;;;5052411;28;20461;-75
2024/02/03 02:29:01;;;;;;;15.20;14.73;;;8.80;99.90;;;;;;5055778;28;20467;-71
2024/02/03 02:31:28;;;;;;;15.40;14.90;;;8.80;99.90;;;;;;5058671;28;20470;-73
2024/02/03 02:33:55;;;;;;;14.43;14.03;;;8.80;99.90;;;;;;5052631;28;20470;-72
2024/02/03 02:36:22;;;;;;;14.10;13.70;;;8.80;99.90;;;;;;5051231;28;20495;-72
2024/02/03 02:38:50;;;;;;;14.07;13.67;;;8.80;99.90;;;;;;5054562;28;20467;-73
2024/02/03 02:41:18;;;;;;;13.83;13.43;;;8.70;99.90;;;;;;5052028;28;20815;-75
2024/02/03 02:43:45;;;;;;;13.93;13.53;;;8.70;99.90;;;;;;5054281;28;21033;-73
2024/02/03 02:46:12;;;;;;;14.07;13.67;;;8.70;99.90;;;;;;5056253;28;20499;-74
2024/02/03 02:48:40;;;;;;;14.10;13.70;;;8.80;99.90;;;;;;5046834;28;20469;-73
2024/02/03 02:51:21;;;;;;;13.20;12.90;;;8.80;99.90;;;;;;5054311;28;20470;-73
2024/02/03 02:53:50;;;;;;;14.00;13.60;;;8.80;99.90;;;;;;5055017;28;20560;-73
2024/02/03 02:56:18;;;;;;;14.40;14.00;;;8.70;99.90;;;;;;5058187;28;20518;-72
2024/02/03 02:58:45;;;;;;;14.67;14.27;;;8.80;99.90;;;;;;5059309;28;20558;-73
2024/02/03 03:01:12;;;;;;;14.90;14.50;;;8.80;99.90;;;;;;5053266;28;20927;-72
2024/02/03 03:03:39;;;;;;;14.50;14.10;;;8.80;99.90;;;;;;5050729;28;20461;-73
2024/02/03 03:06:06;;;;;;;14.77;14.37;;;8.80;99.90;;;;;;5048719;28;20470;-72
2024/02/03 03:08:36;;;;;;;14.30;13.90;;;8.80;99.90;;;;;;5063211;28;20836;-73
2024/02/03 03:11:05;;;;;;;15.17;14.73;;;8.80;99.90;;;;;;5052390;28;20827;-75
2024/02/03 03:13:32;;;;;;;15.10;14.70;;;8.80;99.90;;;;;;5055533;28;20472;-73
2024/02/03 03:16:00;;;;;;;14.70;14.30;;;8.80;99.90;;;;;;5053460;28;20496;-73
2024/02/03 03:18:27;;;;;;;14.90;14.50;;;8.80;99.90;;;;;;5050882;28;20566;-72
2024/02/03 03:20:54;;;;;;;14.70;14.30;;;8.80;99.90;;;;;;5056354;28;20475;-73
2024/02/03 03:23:21;;;;;;;13.70;13.30;;;8.80;99.90;;;;;;5063779;28;20455;-73
2024/02/03 03:25:48;;;;;;;13.57;13.17;;;8.80;99.90;;;;;;5047801;28;20469;-71
2024/02/03 03:28:16;;;;;;;14.00;13.60;;;8.80;99.90;;;;;;5054120;28;20444;-72
2024/02/03 03:30:43;;;;;;;13.83;13.43;;;8.70;99.90;;;;;;5054482;28;20460;-72
2024/02/03 03:33:10;;;;;;;14.17;13.77;;;8.80;99.90;;;;;;5052025;28;20467;-74
2024/02/03 03:35:36;;;;;;;14.90;14.50;;;8.90;99.90;;;;;;5051281;28;20894;-74
2024/02/03 03:38:04;;;;;;;14.10;13.70;;;8.90;99.90;;;;;;5049716;28;20515;-74
2024/02/03 03:40:31;;;;;;;14.00;13.60;;;8.80;99.90;;;;;;5053211;28;20459;-73
2024/02/03 03:42:57;;;;;;;13.90;13.50;;;8.80;99.90;;;;;;5051718;28;20460;-72
2024/02/03 03:45:26;;;;;;;13.77;13.37;;;8.90;99.90;;;;;;5053319;28;20465;-73
2024/02/03 03:47:53;;;;;;;14.10;13.70;;;8.80;99.90;;;;;;5046954;28;20464;-73
2024/02/03 03:50:20;;;;;;;14.00;13.60;;;8.80;99.90;;;;;;5054539;28;20546;-73
2024/02/03 03:52:47;;;;;;;13.70;13.30;;;8.90;99.90;;;;;;5047415;28;20501;-73
2024/02/03 03:55:14;;;;;;;14.23;13.83;;;8.90;99.90;;;;;;5050883;28;20458;-72
2024/02/03 03:57:41;;;;;;;15.27;14.77;;;8.90;99.90;;;;;;5048911;28;20504;-74
2024/02/03 04:00:10;;;;;;;14.60;14.20;;;8.90;99.90;;;;;;5049883;28;20452;-74
2024/02/03 04:02:38;;;;;;;14.13;13.73;;;8.90;99.90;;;;;;5054722;28;20452;-73
2024/02/03 04:05:05;;;;;;;14.33;13.93;;;8.90;99.90;;;;;;5046921;28;20461;-73
2024/02/03 04:07:32;;;;;;;13.90;13.50;;;9.00;99.90;;;;;;5059781;28;20487;-73
2024/02/03 04:09:59;;;;;;;14.40;14.00;;;9.00;99.90;;;;;;5051398;28;20464;-72
2024/02/03 04:12:26;;;;;;;14.67;14.27;;;8.90;99.90;;;;;;5048402;28;20486;-72
2024/02/03 04:14:53;;;;;;;15.50;15.00;;;8.90;99.90;;;;;;5051318;28;20551;-72
2024/02/03 04:17:20;;;;;;;14.23;13.83;;;9.00;99.90;;;;;;5058641;28;20503;-73
2024/02/03 04:19:48;;;;;;;15.00;14.60;;;9.00;99.90;;;;;;5047223;28;20456;-73
2024/02/03 04:22:16;;;;;;;13.70;13.30;;;9.00;99.90;;;;;;5048781;28;20496;-72
2024/02/03 04:24:44;;;;;;;14.13;13.73;;;9.00;99.90;;;;;;5046637;28;20535;-73
2024/02/03 04:27:10;;;;;;;14.77;14.37;;;9.00;99.90;;;;;;5050316;28;20465;-73
2024/02/03 04:29:37;;;;;;;14.73;14.33;;;9.00;99.90;;;;;;5055998;28;20459;-73
2024/02/03 04:32:04;;;;;;;15.30;14.87;;;9.00;99.90;;;;;;5053539;28;20475;-72
2024/02/03 04:34:31;;;;;;;14.90;14.50;;;9.10;99.90;;;;;;5052343;28;20463;-72
2024/02/03 04:36:59;;;;;;;15.60;15.10;;;9.10;99.90;;;;;;5050752;28;20998;-72
2024/02/03 04:39:26;;;;;;;15.67;15.17;;;9.10;99.90;;;;;;5050395;28;20467;-72
2024/02/03 04:41:53;;;;;;;14.97;14.57;;;9.10;99.90;;;;;;5051564;28;20461;-73
2024/02/03 04:44:21;;;;;;;14.80;14.40;;;9.10;99.90;;;;;;5053198;28;20461;-73
2024/02/03 04:46:47;;;;;;;15.20;14.80;;;9.10;99.90;;;;;;5057581;28;20469;-72
2024/02/03 04:49:14;;;;;;;14.30;13.90;;;9.10;99.90;;;;;;5054318;28;20466;-72
2024/02/03 04:51:41;;;;;;;14.27;13.87;;;9.10;99.90;;;;;;5052877;28;20552;-71
2024/02/03 04:54:09;;;;;;;14.53;14.13;;;9.10;99.90;;;;;;5043588;28;20472;-73
2024/02/03 04:56:36;;;;;;;14.60;14.20;;;9.10;99.90;;;;;;5046589;28;20496;-73
2024/02/03 04:59:03;;;;;;;14.67;14.27;;;9.10;99.90;;;;;;5050930;28;20488;-73
2024/02/03 05:01:30;;;;;;;14.80;14.40;;;9.10;99.90;;;;;;5052152;28;20463;-73
2024/02/03 05:03:57;;;;;;;15.00;14.60;;;9.10;99.90;;;;;;5047793;28;20460;-72
2024/02/03 05:06:24;;;;;;;14.50;14.10;;;9.10;99.90;;;;;;5050556;28;20485;-71
2024/02/03 05:08:51;;;;;;;13.87;13.47;;;9.10;99.90;;;;;;5057186;28;20470;-71
2024/02/03 05:11:19;;;;;;;14.50;14.10;;;9.10;99.90;;;;;;5056040;28;20453;-73
2024/02/03 05:13:46;;;;;;;15.43;14.93;;;9.20;99.90;;;;;;5052658;28;20470;-72
2024/02/03 05:16:13;;;;;;;15.37;14.87;;;9.20;99.90;;;;;;5053874;28;20506;-72
2024/02/03 05:18:40;;;;;;;15.40;14.90;;;9.20;99.90;;;;;;5051695;28;20545;-72
2024/02/03 05:21:06;;;;;;;14.80;14.40;;;9.20;99.90;;;;;;5047117;28;20464;-72
2024/02/03 05:23:33;;;;;;;14.90;14.50;;;9.10;99.90;;;;;;5054777;28;20456;-73
2024/02/03 05:26:00;;;;;;;14.77;14.37;;;9.10;99.90;;;;;;5053014;28;20472;-72
2024/02/03 05:28:28;;;;;;;15.33;14.83;;;9.10;99.90;;;;;;5049962;28;20468;-72
2024/02/03 05:30:55;;;;;;;15.67;15.17;;;9.20;99.90;;;;;;5053567;28;20468;-72
2024/02/03 05:33:21;;;;;;;14.90;14.50;;;9.20;99.90;;;;;;5044599;28;20464;-71
2024/02/03 05:35:48;;;;;;;15.57;15.07;;;9.20;99.90;;;;;;5046577;28;20935;-71
2024/02/03 05:38:15;;;;;;;14.87;14.47;;;9.20;99.90;;;;;;5057122;28;20538;-73
2024/02/03 05:40:41;;;;;;;15.70;15.20;;;9.20;99.90;;;;;;5054387;28;20496;-73
2024/02/03 05:43:08;;;;;;;15.00;14.60;;;9.20;99.90;;;;;;5050453;28;20456;-73
2024/02/03 05:45:36;;;;;;;14.33;13.93;;;9.20;99.90;;;;;;5053697;28;20505;-73
2024/02/03 05:48:03;;;;;;;16.10;15.60;;;9.30;99.90;;;;;;5052594;28;21005;-71
2024/02/03 05:50:30;;;;;;;15.70;15.20;;;9.30;99.90;;;;;;5045607;28;20472;-72
2024/02/03 05:52:57;;;;;;;14.90;14.50;;;9.20;99.90;;;;;;5052214;28;20465;-72
2024/02/03 05:55:25;;;;;;;15.10;14.70;;;9.30;99.90;;;;;;5050814;28;20472;-72
2024/02/03 05:57:53;;;;;;;14.60;14.20;;;9.30;99.90;;;;;;5048955;28;20500;-72
2024/02/03 06:00:21;;;;;;;14.57;14.17;;;9.30;99.90;;;;;;5049793;28;21035;-73
2024/02/03 06:02:50;;;;;;;15.60;15.10;;;9.30;99.90;;;;;;5049330;28;20680;-72
2024/02/03 06:05:17;;;;;;;15.17;14.77;;;9.40;99.90;;;;;;5050216;28;20462;-72
2024/02/03 06:07:43;;;;;;;15.90;15.40;;;9.30;99.90;;;;;;5050361;28;20489;-71
2024/02/03 06:10:11;;;;;;;15.03;14.63;;;9.30;99.90;;;;;;5057522;28;20451;-73
2024/02/03 06:12:38;;;;;;;15.33;14.83;;;9.30;99.90;;;;;;5052306;28;20946;-72
2024/02/03 06:15:06;;;;;;;14.73;14.33;;;9.40;99.90;;;;;;5061673;28;20830;-73
2024/02/03 06:17:32;;;;;;;14.70;14.30;;;9.30;99.90;;;;;;5047719;28;20607;-71
2024/02/03 06:20:00;;;;;;;14.70;14.30;;;9.30;99.90;;;;;;5054195;28;20866;-72
2024/02/03 06:22:27;;;;;;;15.40;14.90;;;9.30;99.90;;;;;;5058371;28;20467;-72
2024/02/03 06:24:56;;;;;;;15.80;15.30;;;9.30;99.90;;;;;;5055987;28;21016;-71
2024/02/03 06:27:22;;;;;;;15.23;14.73;;;9.30;99.90;;;;;;5057808;28;20464;-71
2024/02/03 06:29:49;;;;;;;16.00;15.50;;;9.30;99.90;;;;;;5053748;28;20453;-72
2024/02/03 06:32:16;;;;;;;15.97;15.47;;;9.30;99.90;;;;;;5051114;28;20962;-72
2024/02/03 06:34:43;;;;;;;16.67;16.10;;;9.30;99.90;;;;;;5054719;28;20459;-71
2024/02/03 06:37:11;;;;;;;16.33;15.83;;;9.30;99.90;;;;;;5050467;28;20475;-72
2024/02/03 06:39:39;;;;;;;16.23;15.73;;;9.30;99.90;;;;;;5053210;28;20853;-72
2024/02/03 06:42:06;;;;;;;16.53;16.00;;;9.30;99.90;;;;;;5053527;28;20468;-74
2024/02/03 06:44:33;;;;;;;15.73;15.23;;;9.30;99.90;;;;;;5051087;28;20463;-71
2024/02/03 06:47:00;;;;;;;16.00;15.50;;;9.30;99.90;;;;;;5049670;28;21130;-72
2024/02/03 06:49:26;;;;;;;16.03;15.53;;;9.30;99.90;;;;;;5053964;28;20941;-72
2024/02/03 06:51:54;;;;;;;16.20;15.70;;;9.30;99.90;;;;;;5049467;28;20808;-72
2024/02/03 06:54:23;;;;;;;16.17;15.67;;;9.20;99.90;;;;;;5054966;28;20921;-75
2024/02/03 06:56:50;;;;;;;15.57;15.07;;;9.30;99.90;;;;;;5052594;28;20583;-73
2024/02/03 06:59:17;;;;;;;15.70;15.20;;;9.30;99.90;;;;;;5054211;28;21008;-72
2024/02/03 07:01:43;;;;;;;16.13;15.63;;;9.20;99.90;;;;;;5054624;28;20956;-72
2024/02/03 07:04:10;;;;;;;16.13;15.63;;;9.30;99.90;;;;;;5057253;28;20986;-74
2024/02/03 07:06:37;;;;;;;16.87;16.27;;;9.30;99.90;;;;;;5046775;28;20476;-72
2024/02/03 07:09:04;;;;;;;15.93;15.43;;;9.30;99.90;;;;;;5060053;28;20466;-73
2024/02/03 07:11:32;;;;;;;16.83;16.23;;;9.40;99.90;;;;;;5058645;28;20454;-72
2024/02/03 07:13:59;;;;;;;16.70;16.10;;;9.40;99.90;;;;;;5054675;28;20450;-72
2024/02/03 07:16:26;;;;;;;16.20;15.70;;;9.40;99.90;;;;;;5052646;28;20461;-74
2024/02/03 07:18:53;;;;;;;16.50;16.00;;;9.40;99.90;;;;;;5048772;28;20569;-75
2024/02/03 07:21:20;;;;;;;16.23;15.73;;;9.40;99.90;;;;;;5052914;28;20473;-71
2024/02/03 07:23:49;;;;;;;15.60;15.10;;;9.50;99.90;;;;;;5047997;28;20475;-71
2024/02/03 07:26:16;;;;;;;15.80;15.30;;;9.40;99.90;;;;;;5053446;28;20460;-74
2024/02/03 07:28:44;;;;;;;15.70;15.20;;;9.40;99.90;;;;;;5047382;28;20473;-72
2024/02/03 07:31:11;;;;;;;15.93;15.43;;;9.40;99.90;;;;;;5049682;28;20456;-74
2024/02/03 07:33:38;;;;;;;16.03;15.53;;;9.40;99.90;;;;;;5051651;28;20496;-72
2024/02/03 07:36:06;;;;;;;16.87;16.27;;;9.40;99.90;;;;;;5056909;28;20615;-72
2024/02/03 07:38:33;;;;;;;16.27;15.77;;;9.40;99.90;;;;;;5049202;28;21008;-74
2024/02/03 07:40:59;;;;;;;16.20;15.70;;;9.40;99.90;;;;;;5047187;28;20461;-72
2024/02/03 07:43:26;;;;;;;16.17;15.67;;;9.50;99.90;;;;;;5054277;28;20542;-72
2024/02/03 07:45:54;;;;;;;16.63;16.13;;;9.50;99.90;;;;;;5052340;28;20468;-72
2024/02/03 07:48:21;;;;;;;16.80;16.20;;;9.40;99.90;;;;;;5049610;28;20460;-75
2024/02/03 07:50:48;;;;;;;17.37;16.77;;;9.50;99.90;;;;;;5048862;28;20460;-72
2024/02/03 07:53:15;;;;;;;17.37;16.77;;;9.50;99.90;;;;;;5048130;28;20700;-72
2024/02/03 07:55:42;;;;;;;16.67;16.07;;;9.50;99.90;;;;;;5048705;28;20458;-73
2024/02/03 07:58:09;;;;;;;17.07;16.47;;;9.50;99.90;;;;;;5055598;28;20492;-72
2024/02/03 08:00:36;;;;;;;15.80;15.30;;;9.50;99.90;;;;;;5053008;28;20461;-72
2024/02/03 08:03:05;;;;;;;15.77;15.27;;;9.50;99.90;;;;;;5052841;28;20459;-72
2024/02/03 08:05:32;;;;;;;16.10;15.60;;;9.50;99.90;;;;;;5059880;28;20494;-72
2024/02/03 08:07:59;;;;;;;17.10;16.50;;;9.60;99.90;;;;;;5047426;28;21141;-72
2024/02/03 08:10:28;;;;;;;17.23;16.63;;;9.60;99.90;;;;;;5053173;28;20481;-76
2024/02/03 08:12:54;;;;;;;17.43;16.83;;;9.60;99.90;;;;;;5055330;28;20469;-72
2024/02/03 08:15:21;;;;;;;16.70;16.20;;;9.60;99.90;;;;;;5052094;28;20999;-72
2024/02/03 08:17:48;;;;;;;16.80;16.23;;;9.50;99.90;;;;;;5049617;28;20527;-72
2024/02/03 08:20:17;;;;;;;17.67;17.07;;;9.50;99.90;;;;;;5048743;28;20468;-72
2024/02/03 08:22:44;;;;;;;17.23;16.63;;;9.60;99.90;;;;;;5047973;28;20459;-73
2024/02/03 08:25:10;;;;;;;17.17;16.57;;;9.60;99.90;;;;;;5052493;28;20580;-75
2024/02/03 08:27:37;;;;;;;17.43;16.83;;;9.60;99.90;;;;;;5047195;28;20481;-72
2024/02/03 08:30:05;;;;;;;17.57;16.97;;;9.70;99.90;;;;;;5049351;28;20472;-72
2024/02/03 08:32:32;;;;;;;16.70;16.20;;;9.60;99.90;;;;;;5060453;28;20452;-72
2024/02/03 08:35:00;;;;;;;16.90;16.30;;;9.60;99.90;;;;;;5048077;28;20460;-73
2024/02/03 08:37:28;;;;;;;16.60;16.10;;;9.60;99.90;;;;;;5047889;28;20492;-73
2024/02/03 08:39:55;;;;;;;16.70;16.20;;;9.60;99.90;;;;;;5050460;28;20471;-74
2024/02/03 08:42:21;;;;;;;16.63;16.13;;;9.70;99.90;;;;;;5052816;28;20616;-73
2024/02/03 08:44:49;;;;;;;15.73;15.23;;;9.60;99.90;;;;;;5050989;28;20465;-73
2024/02/03 08:47:16;;;;;;;15.93;15.43;;;9.70;99.90;;;;;;5049896;28;20473;-72
2024/02/03 08:49:51;;;;;;;17.00;16.40;;;9.70;99.90;;;;;;5048333;28;20457;-72
2024/02/03 08:52:19;;;;;;;15.63;15.13;;;9.60;99.90;;;;;;5054524;28;20517;-73
2024/02/03 08:54:47;;;;;;;16.27;15.77;;;9.70;99.90;;;;;;5047654;28;20519;-73
2024/02/03 08:57:14;;;;;;;16.40;15.90;;;9.60;99.90;;;;;;5051201;28;20492;-74
2024/02/03 08:59:41;;;;;;;15.80;15.30;;;9.70;99.90;;;;;;5045799;28;20499;-74
2024/02/03 09:02:09;;;;;;;17.23;16.63;;;9.70;99.90;;;;;;5050131;28;20464;-75
2024/02/03 09:04:37;;;;;;;17.33;16.73;;;9.70;99.90;;;;;;5048396;28;20472;-75
2024/02/03 09:07:04;;;;;;;17.40;16.80;;;9.70;99.90;;;;;;5046496;28;20985;-74
2024/02/03 09:09:31;;;;;;;17.03;16.43;;;9.70;99.90;;;;;;5058831;28;20460;-72
2024/02/03 09:12:01;;;;;;;16.80;16.20;;;9.80;99.90;;;;;;5048814;28;20440;-76
2024/02/03 09:14:28;;;;;;;16.37;15.87;;;9.80;99.90;;;;;;5050612;28;20897;-73
2024/02/03 09:16:55;;;;;;;16.57;16.07;;;9.80;99.90;;;;;;5046471;28;20829;-74
2024/02/03 09:19:22;;;;;;;17.03;16.43;;;9.80;99.90;;;;;;5047944;28;20495;-73
2024/02/03 09:21:49;;;;;;;16.60;16.10;;;9.70;99.90;;;;;;5051093;28;20466;-75
2024/02/03 09:24:16;;;;;;;17.17;16.57;;;9.70;99.90;;;;;;5053090;28;20460;-73
2024/02/03 09:26:43;;;;;;;17.33;16.73;;;9.70;99.90;;;;;;5045776;28;20470;-72
2024/02/03 09:29:12;;;;;;;17.63;17.03;;;9.70;99.90;;;;;;5049067;28;20490;-74
2024/02/03 09:31:39;;;;;;;17.70;17.10;;;9.80;99.90;;;;;;5051574;28;20471;-73
2024/02/03 09:34:06;;;;;;;17.77;17.17;;;9.80;99.90;;;;;;5050248;28;20475;-72
2024/02/03 09:36:33;;;;;;;17.20;16.60;;;9.80;99.90;;;;;;5054834;28;20459;-72
2024/02/03 09:39:01;;;;;;;18.10;17.47;;;9.80;99.90;;;;;;5053294;28;20488;-73
2024/02/03 09:41:28;;;;;;;17.83;17.13;;;9.70;99.90;;;;;;5060943;28;20646;-72
2024/02/03 09:43:56;;;;;;;18.10;17.40;;;9.80;99.90;;;;;;5058181;28;20459;-73
2024/02/03 09:46:24;;;;;;;18.77;18.07;;;9.80;99.90;;;;;;5049414;28;20486;-73
2024/02/03 09:48:51;;;;;;;17.70;17.10;;;9.90;99.90;;;;;;5053289;28;20464;-73
2024/02/03 09:51:18;;;;;;;19.00;18.30;;;9.90;99.90;;;;;;5057029;28;20463;-75
2024/02/03 09:53:45;;;;;;;18.07;17.37;;;9.90;99.90;;;;;;5053334;28;20469;-73
2024/02/03 09:56:12;;;;;;;18.90;18.20;;;9.90;99.90;;;;;;5054750;28;20723;-73
2024/02/03 09:58:39;;;;;;;18.80;18.10;;;9.90;99.90;;;;;;5049958;28;20496;-73
2024/02/03 10:01:06;;;;;;;18.37;17.67;;;10.00;99.90;;;;;;5056231;28;20476;-73
2024/02/03 10:03:34;;;;;;;18.60;17.90;;;9.90;99.90;;;;;;5048135;28;20722;-73
2024/02/03 10:06:03;;;;;;;18.27;17.57;;;9.90;99.90;;;;;;5056096;28;20458;-76
2024/02/03 10:08:30;;;;;;;18.63;17.93;;;9.90;99.90;;;;;;5051761;28;20958;-73
2024/02/03 10:10:57;;;;;;;18.27;17.57;;;9.90;99.90;;;;;;5053981;28;20462;-73
2024/02/03 10:13:24;;;;;;;18.80;18.10;;;10.00;99.90;;;;;;5056949;28;20454;-73
2024/02/03 10:16:00;;;;;;;18.13;17.43;;;10.10;99.90;;;;;;5048967;28;20462;-72
2024/02/03 10:18:26;;;;;;;18.97;18.27;;;10.10;99.90;;;;;;5053261;28;20477;-74
2024/02/03 10:20:55;;;;;;;19.17;18.47;;;10.10;99.90;;;;;;5046606;28;20559;-73
2024/02/03 10:23:22;;;;;;;19.20;18.50;;;10.20;99.90;;;;;;5052094;28;20465;-73
2024/02/03 10:25:56;;;;;;;18.70;18.00;;;10.20;99.90;;;;;;5052589;28;20456;-75
2024/02/03 10:28:23;;;;;;;18.53;17.83;;;10.20;99.90;;;;;;5048847;28;20467;-73
2024/02/03 10:30:50;;;;;;;18.37;17.67;;;10.20;99.90;;;;;;5049221;28;20460;-74
2024/02/03 10:33:17;;;;;;;18.23;17.53;;;10.20;99.90;;;;;;5054466;28;20565;-73
2024/02/03 10:35:46;;;;;;;18.43;17.73;;;10.20;99.90;;;;;;5051589;28;20461;-74
2024/02/03 10:38:14;;;;;;;18.73;18.03;;;10.20;99.90;;;;;;5055363;28;20585;-73
2024/02/03 10:40:42;;;;;;;18.70;18.00;;;10.20;99.90;;;;;;5054020;28;20459;-72
2024/02/03 10:43:16;;;;;;;17.83;17.23;;;10.20;99.90;;;;;;5050545;28;20732;-72
2024/02/03 10:45:46;;;;;;;18.70;18.00;;;10.20;99.90;;;;;;5049727;28;20494;-74
2024/02/03 10:48:17;;;;;;;18.30;17.60;;;10.20;99.90;;;;;;5047701;28;20492;-75
2024/02/03 10:50:47;;;;;;;18.10;17.50;;;10.20;99.90;;;;;;5052842;28;20510;-76
2024/02/03 10:53:20;;;;;;;17.67;17.07;;;10.20;99.90;;;;;;5050394;28;20488;-74
2024/02/03 10:55:55;;;;;;;17.37;16.77;;;10.20;99.90;;;;;;5060494;28;20460;-73
2024/02/03 10:58:23;;;;;;;18.20;17.50;;;10.30;99.90;;;;;;5049348;28;20593;-76
2024/02/03 11:00:52;;;;;;;17.57;16.97;;;10.30;99.90;;;;;;5054914;28;20816;-76
2024/02/03 11:03:23;;;;;;;18.00;17.40;;;10.30;99.90;;;;;;5052395;28;20975;-73
2024/02/03 11:05:54;;;;;;;18.50;17.80;;;10.40;99.90;;;;;;5051804;28;20546;-75
2024/02/03 11:08:23;;;;;;;18.07;17.47;;;10.40;99.90;;;;;;5055395;28;20471;-73
2024/02/03 11:10:50;;;;;;;18.60;17.90;;;10.40;99.90;;;;;;5048082;28;21007;-75
2024/02/03 11:13:20;;;;;;;18.77;18.07;;;10.50;99.90;;;;;;5053246;28;20457;-73
2024/02/03 11:15:48;;;;;;;18.27;17.67;;;10.60;99.90;;;;;;5049631;28;20964;-72
2024/02/03 11:18:15;;;;;;;18.53;17.83;;;10.60;99.90;;;;;;5046092;28;20601;-72
2024/02/03 11:20:42;;;;;;;18.47;17.77;;;10.60;99.90;;;;;;5046469;28;20455;-73
2024/02/03 11:23:13;;;;;;;19.17;18.47;;;10.60;99.90;;;;;;5046792;28;20962;-76
2024/02/03 11:25:43;;;;;;;18.43;17.77;;;10.70;99.90;;;;;;5044818;28;20468;-72
2024/02/03 11:28:10;;;;;;;17.97;17.37;;;10.60;99.90;;;;;;5057428;28;20463;-73
2024/02/03 11:30:37;;;;;;;17.63;17.03;;;10.70;99.90;;;;;;5055130;28;20456;-73
2024/02/03 11:33:05;;;;;;;17.57;16.97;;;10.60;99.90;;;;;;5048333;28;20452;-73
2024/02/03 11:35:32;;;;;;;17.03;16.43;;;10.70;99.90;;;;;;5050808;28;20472;-72
2024/02/03 11:38:05;;;;;;;17.77;17.17;;;10.70;99.90;;;;;;5050972;28;20475;-74
2024/02/03 11:40:33;;;;;;;17.03;16.43;;;10.80;99.90;;;;;;5049344;28;21035;-72
2024/02/03 11:43:02;;;;;;;17.00;16.40;;;10.70;99.90;;;;;;5057513;28;20465;-73
2024/02/03 11:45:33;;;;;;;16.97;16.37;;;10.70;99.90;;;;;;5048085;28;20824;-73
2024/02/03 11:48:02;;;;;;;15.97;15.47;;;10.80;99.90;;;;;;5050274;28;20685;-73
2024/02/03 11:50:30;;;;;;;16.30;15.80;;;10.80;99.90;;;;;;5055723;28;20448;-73
2024/02/03 11:52:59;;;;;;;16.20;15.70;;;10.80;99.90;;;;;;5056561;28;20464;-73
2024/02/03 11:55:26;;;;;;;16.27;15.77;;;10.90;99.90;;;;;;5048173;28;20461;-72
2024/02/03 11:57:53;;;;;;;16.90;16.30;;;11.00;99.90;;;;;;5050128;28;20867;-72
2024/02/03 12:00:21;;;;;;;16.40;15.90;;;10.90;99.90;;;;;;5053333;28;20956;-73
2024/02/03 12:02:48;;;;;;;15.90;15.40;;;10.90;99.90;;;;;;5053302;28;20484;-74
2024/02/03 12:05:16;;;;;;;16.50;16.00;;;10.80;99.90;;;;;;5049331;28;20468;-71
2024/02/03 12:07:45;;;;;;;16.87;16.27;;;10.80;99.90;;;;;;5050541;28;20471;-72
2024/02/03 12:10:13;;;;;;;17.07;16.47;;;10.80;99.90;;;;;;5051411;28;20911;-72
2024/02/03 12:12:40;;;;;;;16.60;16.10;;;10.80;99.90;;;;;;5053133;28;20595;-71
2024/02/03 12:15:10;;;;;;;16.97;16.37;;;10.80;99.90;;;;;;5046096;28;20469;-72
2024/02/03 12:17:40;;;;;;;16.80;16.20;;;10.70;99.90;;;;;;5048677;28;20553;-72
2024/02/03 12:20:22;;;;;;;17.00;16.40;;;10.70;99.90;;;;;;5043936;28;20494;-72
2024/02/03 12:22:50;;;;;;;17.53;16.93;;;10.60;99.90;;;;;;5053899;28;20806;-71
2024/02/03 12:25:17;;;;;;;17.90;17.30;;;10.70;99.90;;;;;;5051193;28;20462;-72
2024/02/03 12:27:45;;;;;;;17.60;17.00;;;10.60;99.90;;;;;;5054010;28;20463;-73
2024/02/03 12:30:17;;;;;;;17.63;17.03;;;10.60;99.90;;;;;;5044107;28;20842;-72
2024/02/03 12:32:49;;;;;;;17.10;16.50;;;10.60;99.90;;;;;;5049838;28;20461;-71
2024/02/03 12:35:17;;;;;;;16.80;16.20;;;10.50;99.90;;;;;;5052783;28;21751;-71
2024/02/03 12:37:44;;;;;;;18.00;17.30;;;10.50;99.90;;;;;;5052329;28;20566;-72